createdAt,value
2023-04-03T00:01:23.385Z,101870.00
2023-04-03T00:03:53.394Z,101871.00
2023-04-03T00:06:22.298Z,101872.00
2023-04-03T00:08:50.725Z,101860.00
2023-04-03T00:11:19.492Z,101864.00
2023-04-03T00:13:48.463Z,101870.00
2023-04-03T00:16:16.519Z,101871.00
2023-04-03T00:18:44.670Z,101877.00
2023-04-03T00:21:14.868Z,101881.00
2023-04-03T00:23:43.094Z,101875.00
2023-04-03T00:26:11.536Z,101881.00
2023-04-03T00:28:41.664Z,101882.00
2023-04-03T00:31:09.584Z,101871.00
2023-04-03T00:33:37.843Z,101883.00
2023-04-03T00:36:11.447Z,101889.00
2023-04-03T00:38:39.708Z,101885.00
2023-04-03T00:41:08.417Z,101885.00
2023-04-03T00:43:36.698Z,101885.00
2023-04-03T00:46:05.131Z,101894.00
2023-04-03T00:48:46.155Z,101894.00
2023-04-03T00:51:27.647Z,101893.00
2023-04-03T00:54:04.590Z,101899.00
2023-04-03T00:56:33.376Z,101909.00
2023-04-03T00:59:08.491Z,101900.00
2023-04-03T01:01:37.043Z,101901.00
2023-04-03T01:04:07.197Z,101906.00
2023-04-03T01:06:38.711Z,101906.00
2023-04-03T01:09:09.717Z,101912.00
2023-04-03T01:11:38.328Z,101908.00
2023-04-03T01:14:07.744Z,101913.00
2023-04-03T01:16:36.423Z,101918.00
2023-04-03T01:19:05.345Z,101921.00
2023-04-03T01:22:04.709Z,101914.00
2023-04-03T01:24:48.730Z,101916.00
2023-04-03T01:27:16.897Z,101915.00
2023-04-03T01:29:45.638Z,101911.00
2023-04-03T01:32:14.460Z,101916.00
2023-04-03T01:34:43.511Z,101917.00
2023-04-03T01:41:26.830Z,101913.00
2023-04-03T01:44:01.021Z,101907.00
2023-04-03T01:46:29.233Z,101914.00
2023-04-03T01:48:57.361Z,101916.00
2023-04-03T01:51:25.569Z,101919.00
2023-04-03T01:53:53.618Z,101920.00
2023-04-03T01:56:21.487Z,101906.00
2023-04-03T01:58:50.855Z,101920.00
2023-04-03T02:01:19.959Z,101918.00
2023-04-03T02:03:48.224Z,101920.00
2023-04-03T02:06:16.697Z,101916.00
2023-04-03T02:08:47.653Z,101913.00
2023-04-03T02:11:16.471Z,101911.00
2023-04-03T02:13:45.007Z,101917.00
2023-04-03T02:16:16.912Z,101922.00
2023-04-03T02:18:45.114Z,101918.00
2023-04-03T02:21:13.525Z,101916.00
2023-04-03T02:23:41.947Z,101922.00
2023-04-03T02:26:12.405Z,101919.00
2023-04-03T02:28:41.106Z,101924.00
2023-04-03T02:31:09.865Z,101930.00
2023-04-03T02:33:39.919Z,101935.00
2023-04-03T02:36:11.252Z,101936.00
2023-04-03T02:38:42.390Z,101937.00
2023-04-03T02:41:13.293Z,101934.00
2023-04-03T02:43:41.564Z,101943.00
2023-04-03T02:46:10.058Z,101942.00
2023-04-03T02:48:38.675Z,101951.00
2023-04-03T02:51:07.198Z,101945.00
2023-04-03T02:53:35.181Z,101948.00
2023-04-03T02:56:10.021Z,101945.00
2023-04-03T02:58:38.112Z,101947.00
2023-04-03T03:01:09.158Z,101948.00
2023-04-03T03:03:37.324Z,101952.00
2023-04-03T03:06:07.149Z,101948.00
2023-04-03T03:08:36.212Z,101953.00
2023-04-03T03:11:05.074Z,101949.00
2023-04-03T03:13:33.701Z,101950.00
2023-04-03T03:16:01.874Z,101947.00
2023-04-03T03:18:33.882Z,101942.00
2023-04-03T03:21:08.339Z,101937.00
2023-04-03T03:23:37.517Z,101955.00
2023-04-03T03:26:08.112Z,101960.00
2023-04-03T03:28:37.889Z,101949.00
2023-04-03T03:31:08.210Z,101958.00
2023-04-03T03:33:39.920Z,101959.00
2023-04-03T03:36:08.471Z,101957.00
2023-04-03T03:38:38.035Z,101955.00
2023-04-03T03:41:06.937Z,101958.00
2023-04-03T03:43:36.708Z,101964.00
2023-04-03T03:46:06.921Z,101964.00
2023-04-03T03:48:35.290Z,101963.00
2023-04-03T03:51:03.424Z,101960.00
2023-04-03T03:53:35.751Z,101956.00
2023-04-03T03:56:08.061Z,101953.00
2023-04-03T03:58:39.243Z,101955.00
2023-04-03T04:05:17.835Z,101966.00
2023-04-03T04:07:46.586Z,101966.00
2023-04-03T04:10:15.574Z,101963.00
2023-04-03T04:12:45.986Z,101967.00
2023-04-03T04:15:15.630Z,101964.00
2023-04-03T04:17:43.758Z,101977.00
2023-04-03T04:20:14.184Z,101970.00
2023-04-03T04:22:42.607Z,101973.00
2023-04-03T04:25:11.995Z,101975.00
2023-04-03T04:27:41.636Z,101967.00
2023-04-03T04:30:11.400Z,101972.00
2023-04-03T04:32:39.960Z,101974.00
2023-04-03T04:35:11.625Z,101975.00
2023-04-03T04:37:43.720Z,101971.00
2023-04-03T04:40:12.959Z,101970.00
2023-04-03T04:42:42.088Z,101965.00
2023-04-03T04:45:13.686Z,101983.00
2023-04-03T04:47:44.884Z,101979.00
2023-04-03T04:50:14.040Z,101980.00
2023-04-03T04:52:42.707Z,101983.00
2023-04-03T04:55:11.455Z,101988.00
2023-04-03T04:57:42.456Z,101989.00
2023-04-03T05:00:11.223Z,101984.00
2023-04-03T05:02:39.782Z,101988.00
2023-04-03T05:05:08.568Z,101996.00
2023-04-03T05:07:37.016Z,101994.00
2023-04-03T05:10:05.957Z,102004.00
2023-04-03T05:12:36.035Z,102001.00
2023-04-03T05:15:06.688Z,102013.00
2023-04-03T05:17:35.334Z,102019.00
2023-04-03T05:20:06.263Z,102011.00
2023-04-03T05:22:35.999Z,102011.00
2023-04-03T05:25:11.958Z,102015.00
2023-04-03T05:27:44.667Z,102015.00
2023-04-03T05:30:14.398Z,102020.00
2023-04-03T05:32:43.776Z,102029.00
2023-04-03T05:35:18.186Z,102031.00
2023-04-03T05:37:48.748Z,102026.00
2023-04-03T05:40:19.811Z,102033.00
2023-04-03T05:42:51.231Z,102029.00
2023-04-03T05:45:22.250Z,102034.00
2023-04-03T05:47:50.971Z,102037.00
2023-04-03T05:50:22.350Z,102039.00
2023-04-03T05:52:55.488Z,102044.00
2023-04-03T05:55:23.971Z,102040.00
2023-04-03T05:57:52.400Z,102044.00
2023-04-03T06:00:20.625Z,102049.00
2023-04-03T06:02:57.399Z,102049.00
2023-04-03T06:05:27.077Z,102055.00
2023-04-03T06:07:55.207Z,102048.00
2023-04-03T06:10:24.093Z,102055.00
2023-04-03T06:12:52.643Z,102061.00
2023-04-03T06:15:21.669Z,102067.00
2023-04-03T06:17:49.890Z,102064.00
2023-04-03T06:20:18.277Z,102064.00
2023-04-03T06:22:51.302Z,102055.00
2023-04-03T06:25:20.171Z,102060.00
2023-04-03T06:27:48.328Z,102065.00
2023-04-03T06:30:17.244Z,102066.00
2023-04-03T06:32:45.717Z,102066.00
2023-04-03T06:35:16.111Z,102057.00
2023-04-03T06:37:47.179Z,102061.00
2023-04-03T06:40:22.060Z,102067.00
2023-04-03T06:42:50.043Z,102064.00
2023-04-03T06:45:23.583Z,102068.00
2023-04-03T06:47:51.716Z,102066.00
2023-04-03T06:50:19.649Z,102069.00
2023-04-03T06:52:47.930Z,102073.00
2023-04-03T06:55:16.001Z,102082.00
2023-04-03T06:57:44.106Z,102081.00
2023-04-03T07:00:14.464Z,102085.00
2023-04-03T07:02:43.224Z,102080.00
2023-04-03T07:05:15.691Z,102088.00
2023-04-03T07:07:44.297Z,102093.00
2023-04-03T07:10:12.656Z,102099.00
2023-04-03T07:12:40.890Z,102097.00
2023-04-03T07:15:09.807Z,102102.00
2023-04-03T07:17:37.909Z,102099.00
2023-04-03T07:20:06.778Z,102105.00
2023-04-03T07:22:35.156Z,102109.00
2023-04-03T07:25:08.778Z,102113.00
2023-04-03T07:27:37.029Z,102122.00
2023-04-03T07:30:05.990Z,102105.00
2023-04-03T07:32:34.293Z,102115.00
2023-04-03T07:35:02.938Z,102117.00
2023-04-03T07:37:38.400Z,102107.00
2023-04-03T07:40:08.039Z,102114.00
2023-04-03T07:42:38.103Z,102114.00
2023-04-03T07:45:06.761Z,102113.00
2023-04-03T07:47:35.913Z,102116.00
2023-04-03T07:50:04.271Z,102107.00
2023-04-03T07:52:32.400Z,102117.00
2023-04-03T07:55:00.367Z,102114.00
2023-04-03T07:57:28.290Z,102115.00
2023-04-03T07:59:56.596Z,102113.00
2023-04-03T08:02:25.874Z,102112.00
2023-04-03T08:04:56.238Z,102110.00
2023-04-03T08:07:27.839Z,102116.00
2023-04-03T08:09:56.942Z,102111.00
2023-04-03T08:12:28.243Z,102118.00
2023-04-03T08:14:56.480Z,102117.00
2023-04-03T08:17:24.958Z,102112.00
2023-04-03T08:19:54.304Z,102115.00
2023-04-03T08:22:22.554Z,102113.00
2023-04-03T08:24:58.501Z,102114.00
2023-04-03T08:27:28.439Z,102111.00
2023-04-03T08:29:58.175Z,102100.00
2023-04-03T08:32:36.164Z,102110.00
2023-04-03T08:35:05.827Z,102111.00
2023-04-03T08:37:35.996Z,102110.00
2023-04-03T08:40:16.992Z,102110.00
2023-04-03T08:43:06.339Z,102106.00
2023-04-03T08:45:52.487Z,102107.00
2023-04-03T08:48:24.468Z,102114.00
2023-04-03T08:51:12.139Z,102114.00
2023-04-03T08:53:44.483Z,102119.00
2023-04-03T08:56:14.408Z,102120.00
2023-04-03T08:58:51.925Z,102127.00
2023-04-03T09:01:48.551Z,102126.00
2023-04-03T09:04:21.002Z,102126.00
2023-04-03T09:06:59.269Z,102130.00
2023-04-03T09:09:34.172Z,102122.00
2023-04-03T09:12:20.658Z,102121.00
2023-04-03T09:15:00.774Z,102133.00
2023-04-03T09:17:34.242Z,102120.00
2023-04-03T09:20:08.279Z,102132.00
2023-04-03T09:22:45.786Z,102140.00
2023-04-03T09:25:28.670Z,102134.00
2023-04-03T09:27:58.168Z,102129.00
2023-04-03T09:30:27.912Z,102132.00
2023-04-03T09:32:58.346Z,102117.00
2023-04-03T09:35:44.919Z,102120.00
2023-04-03T09:38:18.668Z,102117.00
2023-04-03T09:41:08.850Z,102118.00
2023-04-03T09:43:40.191Z,102114.00
2023-04-03T09:46:27.306Z,102110.00
2023-04-03T09:49:08.872Z,102106.00
2023-04-03T09:51:38.564Z,102105.00
2023-04-03T09:54:29.843Z,102099.00
2023-04-03T09:57:08.282Z,102096.00
2023-04-03T09:59:38.026Z,102098.00
2023-04-03T10:02:40.779Z,102108.00
2023-04-03T10:05:42.848Z,102098.00
2023-04-03T10:08:25.408Z,102100.00
2023-04-03T10:11:18.376Z,102106.00
2023-04-03T10:13:58.182Z,102102.00
2023-04-03T10:16:30.124Z,102100.00
2023-04-03T10:19:08.513Z,102100.00
2023-04-03T10:21:52.514Z,102109.00
2023-04-03T10:24:31.538Z,102098.00
2023-04-03T10:27:41.500Z,102094.00
2023-04-03T10:30:30.231Z,102090.00
2023-04-03T10:33:29.026Z,102096.00
2023-04-03T10:36:10.745Z,102095.00
2023-04-03T10:39:03.225Z,102087.00
2023-04-03T10:41:44.460Z,102092.00
2023-04-03T10:44:22.893Z,102090.00
2023-04-03T10:47:14.548Z,102084.00
2023-04-03T10:50:00.032Z,102091.00
2023-04-03T10:52:44.578Z,102079.00
2023-04-03T10:55:16.234Z,102080.00
2023-04-03T10:57:44.496Z,102072.00
2023-04-03T11:00:24.255Z,102067.00
2023-04-03T11:03:04.305Z,102063.00
2023-04-03T11:05:53.043Z,102074.00
2023-04-03T11:08:40.846Z,102072.00
2023-04-03T11:11:20.484Z,102069.00
2023-04-03T11:14:02.085Z,102066.00
2023-04-03T11:16:43.350Z,102071.00
2023-04-03T11:19:33.780Z,102067.00
2023-04-03T11:22:07.680Z,102054.00
2023-04-03T11:24:39.725Z,102045.00
2023-04-03T11:27:10.063Z,102056.00
2023-04-03T11:29:40.796Z,102054.00
2023-04-03T11:32:20.945Z,102060.00
2023-04-03T11:34:57.164Z,102050.00
2023-04-03T11:37:41.942Z,102057.00
2023-04-03T11:40:27.953Z,102043.00
2023-04-03T11:43:09.413Z,102044.00
2023-04-03T11:46:00.604Z,102052.00
2023-04-03T11:48:37.208Z,102046.00
2023-04-03T11:51:31.077Z,102051.00
2023-04-03T11:54:47.355Z,102051.00
2023-04-03T11:58:03.705Z,102037.00
2023-04-03T12:00:53.406Z,102025.00
2023-04-03T12:03:31.444Z,102026.00
2023-04-03T12:06:11.470Z,102033.00
2023-04-03T12:08:46.179Z,102031.00
2023-04-03T12:11:27.732Z,102028.00
2023-04-03T12:13:58.975Z,102033.00
2023-04-03T12:16:43.629Z,102023.00
2023-04-03T12:22:10.432Z,102024.00
2023-04-03T12:24:41.020Z,102024.00
2023-04-03T12:27:22.580Z,102030.00
2023-04-03T12:30:00.143Z,102025.00
2023-04-03T12:32:47.744Z,102029.00
2023-04-03T12:35:25.285Z,102033.00
2023-04-03T12:38:31.990Z,102024.00
2023-04-03T12:41:23.222Z,102021.00
2023-04-03T12:44:09.672Z,102020.00
2023-04-03T12:46:49.460Z,102018.00
2023-04-03T12:49:30.318Z,102014.00
2023-04-03T12:51:59.666Z,102018.00
2023-04-03T12:54:43.663Z,102014.00
2023-04-03T12:57:30.472Z,102013.00
2023-04-03T12:59:59.504Z,102020.00
2023-04-03T13:02:32.880Z,102020.00
2023-04-03T13:05:06.843Z,102022.00
2023-04-03T13:07:39.925Z,102008.00
2023-04-03T13:10:11.094Z,102007.00
2023-04-03T13:12:57.647Z,102007.00
2023-04-03T13:15:29.436Z,102002.00
2023-04-03T13:17:58.490Z,101997.00
2023-04-03T13:20:31.822Z,101998.00
2023-04-03T13:23:07.874Z,101999.00
2023-04-03T13:25:37.982Z,101999.00
2023-04-03T13:28:16.394Z,101994.00
2023-04-03T13:30:56.874Z,101992.00
2023-04-03T13:33:29.742Z,101991.00
2023-04-03T13:36:05.573Z,101982.00
2023-04-03T13:38:35.336Z,101988.00
2023-04-03T13:41:25.035Z,101977.00
2023-04-03T13:44:03.393Z,101977.00
2023-04-03T13:46:35.001Z,101968.00
2023-04-03T13:49:34.385Z,101971.00
2023-04-03T13:52:23.640Z,101985.00
2023-04-03T13:55:00.936Z,101974.00
2023-04-03T13:57:29.886Z,101983.00
2023-04-03T13:59:58.818Z,101980.00
2023-04-03T14:02:36.222Z,101976.00
2023-04-03T14:05:06.707Z,101969.00
2023-04-03T14:07:35.154Z,101975.00
2023-04-03T14:10:03.498Z,101972.00
2023-04-03T14:12:41.992Z,101971.00
2023-04-03T14:15:30.746Z,101960.00
2023-04-03T14:18:01.282Z,101961.00
2023-04-03T14:20:35.870Z,101971.00
2023-04-03T14:23:10.751Z,101963.00
2023-04-03T14:25:40.812Z,101975.00
2023-04-03T14:28:22.139Z,101965.00
2023-04-03T14:30:54.258Z,101957.00
2023-04-03T14:33:24.002Z,101954.00
2023-04-03T14:35:52.437Z,101955.00
2023-04-03T14:38:28.034Z,101950.00
2023-04-03T14:40:59.024Z,101949.00
2023-04-03T14:43:35.794Z,101965.00
2023-04-03T14:46:04.272Z,101956.00
2023-04-03T14:48:32.633Z,101955.00
2023-04-03T14:51:05.653Z,101952.00
2023-04-03T14:53:39.143Z,101944.00
2023-04-03T14:56:24.322Z,101941.00
2023-04-03T14:59:04.674Z,101946.00
2023-04-03T15:01:33.037Z,101947.00
2023-04-03T15:04:01.501Z,101942.00
2023-04-03T15:06:29.543Z,101946.00
2023-04-03T15:08:57.633Z,101943.00
2023-04-03T15:11:26.929Z,101939.00
2023-04-03T15:13:59.383Z,101931.00
2023-04-03T15:16:27.978Z,101930.00
2023-04-03T15:18:56.663Z,101945.00
2023-04-03T15:21:27.354Z,101937.00
2023-04-03T15:23:55.558Z,101946.00
2023-04-03T15:26:24.541Z,101942.00
2023-04-03T15:28:52.948Z,101943.00
2023-04-03T15:31:21.246Z,101939.00
2023-04-03T15:33:49.775Z,101925.00
2023-04-03T15:36:33.405Z,101931.00
2023-04-03T15:39:02.989Z,101925.00
2023-04-03T15:41:31.493Z,101929.00
2023-04-03T15:44:01.963Z,101926.00
2023-04-03T15:46:30.261Z,101930.00
2023-04-03T15:48:58.661Z,101919.00
2023-04-03T15:51:30.839Z,101929.00
2023-04-03T15:54:03.674Z,101915.00
2023-04-03T15:56:31.716Z,101921.00
2023-04-03T15:59:00.749Z,101921.00
2023-04-03T16:01:29.513Z,101912.00
2023-04-03T16:03:58.269Z,101923.00
2023-04-03T16:06:27.204Z,101919.00
2023-04-03T16:08:59.206Z,101927.00
2023-04-03T16:11:29.112Z,101929.00
2023-04-03T16:13:57.785Z,101926.00
2023-04-03T16:16:28.792Z,101927.00
2023-04-03T16:18:59.976Z,101923.00
2023-04-03T16:21:29.673Z,101929.00
2023-04-03T16:24:07.530Z,101928.00
2023-04-03T16:26:35.837Z,101920.00
2023-04-03T16:29:04.353Z,101921.00
2023-04-03T16:31:37.037Z,101915.00
2023-04-03T16:34:07.246Z,101905.00
2023-04-03T16:36:39.184Z,101918.00
2023-04-03T16:39:07.502Z,101917.00
2023-04-03T16:41:35.458Z,101912.00
2023-04-03T16:44:04.611Z,101916.00
2023-04-03T16:46:32.869Z,101917.00
2023-04-03T16:49:01.235Z,101924.00
2023-04-03T16:51:29.851Z,101909.00
2023-04-03T16:53:59.084Z,101921.00
2023-04-03T16:56:32.661Z,101915.00
2023-04-03T16:59:01.254Z,101910.00
2023-04-03T17:01:29.794Z,101912.00
2023-04-03T17:03:58.147Z,101911.00
2023-04-03T17:06:27.009Z,101914.00
2023-04-03T17:08:55.698Z,101904.00
2023-04-03T17:11:30.598Z,101909.00
2023-04-03T17:14:02.659Z,101907.00
2023-04-03T17:16:31.822Z,101904.00
2023-04-03T17:19:01.698Z,101908.00
2023-04-03T17:21:29.873Z,101914.00
2023-04-03T17:24:09.662Z,101909.00
2023-04-03T17:26:37.883Z,101901.00
2023-04-03T17:29:07.242Z,101898.00
2023-04-03T17:31:36.372Z,101906.00
2023-04-03T17:34:05.478Z,101905.00
2023-04-03T17:36:35.141Z,101906.00
2023-04-03T17:39:03.729Z,101912.00
2023-04-03T17:41:32.280Z,101897.00
2023-04-03T17:44:00.467Z,101896.00
2023-04-03T17:46:33.897Z,101897.00
2023-04-03T17:49:06.390Z,101895.00
2023-04-03T17:51:37.477Z,101903.00
2023-04-03T17:54:05.911Z,101909.00
2023-04-03T17:56:34.448Z,101911.00
2023-04-03T17:59:02.605Z,101901.00
2023-04-03T18:01:33.468Z,101905.00
2023-04-03T18:04:04.713Z,101902.00
2023-04-03T18:06:37.638Z,101903.00
2023-04-03T18:09:12.375Z,101904.00
2023-04-03T18:11:40.804Z,101904.00
2023-04-03T18:14:09.870Z,101904.00
2023-04-03T18:16:38.475Z,101910.00
2023-04-03T18:22:08.129Z,101905.00
2023-04-03T18:24:37.016Z,101910.00
2023-04-03T18:27:12.503Z,101902.00
2023-04-03T18:29:42.779Z,101897.00
2023-04-03T18:32:13.240Z,101903.00
2023-04-03T18:34:41.621Z,101914.00
2023-04-03T18:37:09.772Z,101910.00
2023-04-03T18:39:38.378Z,101906.00
2023-04-03T18:42:10.533Z,101911.00
2023-04-03T18:44:39.515Z,101908.00
2023-04-03T18:47:08.551Z,101911.00
2023-04-03T18:49:40.213Z,101913.00
2023-04-03T18:52:08.350Z,101909.00
2023-04-03T18:54:37.881Z,101918.00
2023-04-03T18:57:07.290Z,101917.00
2023-04-03T18:59:39.366Z,101912.00
2023-04-03T19:02:08.638Z,101909.00
2023-04-03T19:04:37.565Z,101920.00
2023-04-03T19:07:06.787Z,101911.00
2023-04-03T19:09:34.912Z,101919.00
2023-04-03T19:12:03.091Z,101923.00
2023-04-03T19:14:35.975Z,101926.00
2023-04-03T19:17:13.635Z,101917.00
2023-04-03T19:19:41.657Z,101920.00
2023-04-03T19:22:09.704Z,101922.00
2023-04-03T19:24:37.982Z,101914.00
2023-04-03T19:27:09.453Z,101917.00
2023-04-03T19:29:37.652Z,101916.00
2023-04-03T19:32:05.733Z,101926.00
2023-04-03T19:34:33.956Z,101914.00
2023-04-03T19:37:04.791Z,101916.00
2023-04-03T19:39:35.834Z,101927.00
2023-04-03T19:42:05.623Z,101918.00
2023-04-03T19:44:35.220Z,101913.00
2023-04-03T19:47:04.569Z,101917.00
2023-04-03T19:49:32.913Z,101913.00
2023-04-03T19:52:01.612Z,101919.00
2023-04-03T19:54:29.880Z,101918.00
2023-04-03T19:57:02.074Z,101913.00
2023-04-03T19:59:32.794Z,101908.00
2023-04-03T20:02:03.595Z,101922.00
2023-04-03T20:04:34.099Z,101915.00
2023-04-03T20:07:03.364Z,101907.00
2023-04-03T20:09:33.345Z,101908.00
2023-04-03T20:12:09.831Z,101907.00
2023-04-03T20:14:39.981Z,101909.00
2023-04-03T20:17:08.904Z,101901.00
2023-04-03T20:19:37.058Z,101905.00
2023-04-03T20:22:05.478Z,101911.00
2023-04-03T20:24:33.905Z,101902.00
2023-04-03T20:27:02.474Z,101908.00
2023-04-03T20:29:31.706Z,101906.00
2023-04-03T20:32:00.103Z,101903.00
2023-04-03T20:34:28.644Z,101899.00
2023-04-03T20:36:57.350Z,101899.00
2023-04-03T20:39:25.532Z,101902.00
2023-04-03T20:41:53.788Z,101904.00
2023-04-03T20:44:22.158Z,101905.00
2023-04-03T20:46:53.303Z,101900.00
2023-04-03T20:49:23.317Z,101902.00
2023-04-03T20:51:51.893Z,101895.00
2023-04-03T20:54:20.121Z,101901.00
2023-04-03T20:56:50.223Z,101902.00
2023-04-03T20:59:18.993Z,101893.00
2023-04-03T21:01:48.011Z,101895.00
2023-04-03T21:04:27.859Z,101893.00
2023-04-03T21:07:33.664Z,101894.00
2023-04-03T21:10:39.748Z,101899.00
2023-04-03T21:13:46.947Z,101891.00
2023-04-03T21:16:15.086Z,101891.00
2023-04-03T21:18:50.145Z,101889.00
2023-04-03T21:21:24.762Z,101900.00
2023-04-03T21:23:54.445Z,101883.00
2023-04-03T21:26:26.429Z,101880.00
2023-04-03T21:28:56.478Z,101883.00
2023-04-03T21:31:25.069Z,101879.00
2023-04-03T21:33:53.748Z,101880.00
2023-04-03T21:36:22.029Z,101874.00
2023-04-03T21:38:58.479Z,101870.00
2023-04-03T21:41:26.904Z,101880.00
2023-04-03T21:43:55.427Z,101878.00
2023-04-03T21:46:25.024Z,101878.00
2023-04-03T21:48:53.009Z,101882.00
2023-04-03T21:51:21.123Z,101872.00
2023-04-03T21:53:56.688Z,101872.00
2023-04-03T21:56:25.187Z,101863.00
2023-04-03T21:58:53.565Z,101861.00
2023-04-03T22:01:21.812Z,101856.00
2023-04-03T22:03:50.031Z,101852.00
2023-04-03T22:06:20.200Z,101850.00
2023-04-03T22:08:48.494Z,101862.00
2023-04-03T22:11:17.188Z,101862.00
2023-04-03T22:13:46.522Z,101855.00
2023-04-03T22:16:15.141Z,101860.00
2023-04-03T22:18:44.402Z,101854.00
2023-04-03T22:21:12.929Z,101849.00
2023-04-03T22:23:44.048Z,101853.00
2023-04-03T22:26:14.101Z,101856.00
2023-04-03T22:28:47.399Z,101855.00
2023-04-03T22:31:16.920Z,101860.00
2023-04-03T22:33:46.834Z,101848.00
2023-04-03T22:36:15.412Z,101855.00
2023-04-03T22:38:47.720Z,101854.00
2023-04-03T22:41:16.173Z,101852.00
2023-04-03T22:43:44.305Z,101850.00
2023-04-03T22:46:12.662Z,101847.00
2023-04-03T22:48:43.580Z,101858.00
2023-04-03T22:51:12.632Z,101858.00
2023-04-03T22:53:40.985Z,101855.00
2023-04-03T22:56:12.740Z,101855.00
2023-04-03T22:58:40.828Z,101854.00
2023-04-03T23:01:10.671Z,101851.00
2023-04-03T23:03:40.296Z,101851.00
2023-04-03T23:06:10.012Z,101859.00
2023-04-03T23:08:39.199Z,101854.00
2023-04-03T23:11:07.698Z,101853.00
2023-04-03T23:13:38.849Z,101850.00
2023-04-03T23:16:07.383Z,101861.00
2023-04-03T23:18:40.055Z,101859.00
2023-04-03T23:21:08.742Z,101857.00
2023-04-03T23:23:36.905Z,101857.00
2023-04-03T23:26:05.084Z,101853.00
2023-04-03T23:28:33.201Z,101861.00
2023-04-03T23:31:03.045Z,101858.00
2023-04-03T23:33:32.316Z,101856.00
2023-04-03T23:36:01.461Z,101857.00
2023-04-03T23:38:29.923Z,101851.00
2023-04-03T23:40:58.100Z,101854.00
2023-04-03T23:43:26.548Z,101854.00
2023-04-03T23:45:55.297Z,101858.00
2023-04-03T23:48:23.357Z,101860.00
2023-04-03T23:50:51.624Z,101855.00
2023-04-03T23:53:19.773Z,101849.00
2023-04-03T23:55:47.849Z,101849.00
2023-04-03T23:58:16.576Z,101852.00
